createdAt,value
2023-03-30T00:01:02.366Z,6.53
2023-03-30T00:03:30.268Z,6.43
2023-03-30T00:06:05.319Z,6.25
2023-03-30T00:08:33.485Z,6.75
2023-03-30T00:11:10.431Z,6.07
2023-03-30T00:13:38.195Z,6.57
2023-03-30T00:16:07.810Z,7.05
2023-03-30T00:18:36.848Z,6.13
2023-03-30T00:21:06.130Z,6.55
2023-03-30T00:23:34.033Z,6.68
2023-03-30T00:26:01.567Z,6.10
2023-03-30T00:28:31.148Z,5.93
2023-03-30T00:30:59.895Z,6.20
2023-03-30T00:33:37.591Z,6.53
2023-03-30T00:36:12.110Z,6.35
2023-03-30T00:38:39.401Z,6.22
2023-03-30T00:41:07.329Z,6.35
2023-03-30T00:43:35.163Z,6.72
2023-03-30T00:46:02.755Z,6.88
2023-03-30T00:48:37.136Z,6.32
2023-03-30T00:51:10.621Z,6.60
2023-03-30T00:53:45.864Z,6.28
2023-03-30T00:56:16.650Z,6.47
2023-03-30T00:58:45.396Z,6.63
2023-03-30T01:01:18.570Z,5.82
2023-03-30T01:03:48.365Z,5.93
2023-03-30T01:06:24.444Z,6.32
2023-03-30T01:08:53.305Z,6.20
2023-03-30T01:11:21.705Z,6.30
2023-03-30T01:13:55.055Z,6.47
2023-03-30T01:17:03.596Z,6.75
2023-03-30T01:19:40.346Z,6.03
2023-03-30T01:22:45.905Z,6.07
2023-03-30T01:25:29.838Z,5.80
2023-03-30T01:28:15.263Z,6.28
2023-03-30T01:31:07.285Z,5.40
2023-03-30T01:33:41.255Z,5.18
2023-03-30T01:36:31.238Z,5.80
2023-03-30T01:39:21.744Z,6.38
2023-03-30T01:42:10.433Z,5.57
2023-03-30T01:44:56.622Z,6.13
2023-03-30T01:47:27.799Z,5.60
2023-03-30T01:49:55.600Z,4.07
2023-03-30T01:52:28.700Z,6.00
2023-03-30T01:55:26.032Z,5.53
2023-03-30T01:58:19.344Z,6.22
2023-03-30T02:00:50.535Z,5.90
2023-03-30T02:03:22.883Z,6.50
2023-03-30T02:05:54.256Z,6.38
2023-03-30T02:08:26.273Z,6.43
2023-03-30T02:10:57.439Z,6.38
2023-03-30T02:13:27.711Z,4.78
2023-03-30T02:16:03.125Z,6.13
2023-03-30T02:18:30.670Z,5.47
2023-03-30T02:20:59.476Z,6.05
2023-03-30T02:23:33.874Z,5.97
2023-03-30T02:26:02.097Z,5.32
2023-03-30T02:28:29.404Z,6.38
2023-03-30T02:30:57.002Z,6.47
2023-03-30T02:33:46.921Z,5.97
2023-03-30T02:36:40.599Z,6.05
2023-03-30T02:39:14.659Z,5.65
2023-03-30T02:42:18.291Z,5.90
2023-03-30T02:45:09.096Z,5.03
2023-03-30T02:47:57.944Z,5.30
2023-03-30T02:50:50.927Z,5.63
2023-03-30T02:53:56.909Z,5.55
2023-03-30T02:56:55.881Z,5.55
2023-03-30T02:59:32.625Z,5.57
2023-03-30T03:02:15.962Z,5.78
2023-03-30T03:04:49.553Z,5.50
2023-03-30T03:07:34.021Z,5.82
2023-03-30T03:10:01.735Z,6.43
2023-03-30T03:12:29.030Z,6.13
2023-03-30T03:14:56.591Z,6.20
2023-03-30T03:17:24.707Z,5.50
2023-03-30T03:19:52.296Z,6.47
2023-03-30T03:22:20.993Z,5.97
2023-03-30T03:24:48.510Z,5.60
2023-03-30T03:27:16.458Z,5.20
2023-03-30T03:30:02.220Z,5.68
2023-03-30T03:35:01.733Z,6.20
2023-03-30T03:37:29.235Z,9.43
2023-03-30T03:39:56.781Z,9.10
2023-03-30T03:42:25.681Z,7.65
2023-03-30T03:45:03.565Z,8.90
2023-03-30T03:47:35.049Z,8.48
2023-03-30T03:50:04.281Z,7.93
2023-03-30T03:52:31.903Z,8.63
2023-03-30T03:54:59.471Z,8.15
2023-03-30T03:57:27.728Z,7.50
2023-03-30T03:59:57.097Z,7.20
2023-03-30T04:02:24.477Z,7.30
2023-03-30T04:04:54.052Z,7.70
2023-03-30T04:07:21.666Z,7.50
2023-03-30T04:09:49.302Z,7.75
2023-03-30T04:12:35.463Z,7.32
2023-03-30T04:15:18.404Z,7.05
2023-03-30T04:18:05.424Z,7.07
2023-03-30T04:20:57.086Z,6.60
2023-03-30T04:23:50.170Z,7.05
2023-03-30T04:26:20.192Z,7.40
2023-03-30T04:29:06.917Z,7.20
2023-03-30T04:32:04.049Z,7.30
2023-03-30T04:34:48.850Z,7.72
2023-03-30T04:37:30.212Z,7.32
2023-03-30T04:40:18.633Z,6.93
2023-03-30T04:42:52.264Z,7.18
2023-03-30T04:45:53.201Z,7.45
2023-03-30T04:48:47.008Z,7.05
2023-03-30T04:51:16.985Z,7.50
2023-03-30T04:53:53.735Z,7.53
2023-03-30T04:56:27.959Z,7.22
2023-03-30T04:59:10.746Z,7.07
2023-03-30T05:01:56.575Z,8.73
2023-03-30T05:04:47.537Z,7.80
2023-03-30T05:07:20.482Z,8.68
2023-03-30T05:10:26.837Z,7.47
2023-03-30T05:13:17.524Z,7.70
2023-03-30T05:16:00.123Z,7.30
2023-03-30T05:18:45.990Z,8.27
2023-03-30T05:21:31.940Z,7.22
2023-03-30T05:24:19.957Z,7.63
2023-03-30T05:26:59.740Z,7.47
2023-03-30T05:29:43.868Z,7.53
2023-03-30T05:32:17.586Z,7.07
2023-03-30T05:35:05.770Z,7.50
2023-03-30T05:37:33.798Z,7.57
2023-03-30T05:40:28.190Z,7.07
2023-03-30T05:43:12.822Z,7.30
2023-03-30T05:45:58.697Z,6.82
2023-03-30T05:48:46.160Z,7.63
2023-03-30T05:51:36.213Z,7.05
2023-03-30T05:54:29.887Z,7.30
2023-03-30T05:57:19.954Z,7.13
2023-03-30T06:00:07.778Z,7.47
2023-03-30T06:02:47.958Z,7.57
2023-03-30T06:05:19.365Z,7.47
2023-03-30T06:07:47.344Z,7.10
2023-03-30T06:10:14.988Z,6.90
2023-03-30T06:12:43.879Z,7.10
2023-03-30T06:15:25.577Z,7.75
2023-03-30T06:17:59.405Z,7.10
2023-03-30T06:20:27.471Z,7.38
2023-03-30T06:22:55.598Z,7.57
2023-03-30T06:25:25.488Z,7.68
2023-03-30T06:27:55.671Z,6.88
2023-03-30T06:30:23.463Z,8.55
2023-03-30T06:32:53.717Z,7.22
2023-03-30T06:35:25.573Z,8.35
2023-03-30T06:37:54.049Z,7.88
2023-03-30T06:40:21.614Z,8.27
2023-03-30T06:42:51.749Z,7.88
2023-03-30T06:45:40.837Z,8.10
2023-03-30T06:48:08.445Z,8.30
2023-03-30T06:50:40.709Z,6.40
2023-03-30T06:53:19.367Z,8.15
2023-03-30T06:55:54.176Z,7.65
2023-03-30T06:58:22.542Z,7.93
2023-03-30T07:00:51.866Z,8.40
2023-03-30T07:03:34.196Z,8.30
2023-03-30T07:06:12.642Z,8.50
2023-03-30T07:08:40.634Z,8.07
2023-03-30T07:11:11.526Z,8.73
2023-03-30T07:13:40.785Z,8.20
2023-03-30T07:16:09.217Z,9.52
2023-03-30T07:18:36.482Z,8.52
2023-03-30T07:21:05.778Z,8.38
2023-03-30T07:23:39.113Z,8.82
2023-03-30T07:26:07.747Z,9.27
2023-03-30T07:28:41.504Z,9.30
2023-03-30T07:31:13.852Z,10.20
2023-03-30T07:33:43.278Z,9.77
2023-03-30T07:36:15.028Z,9.80
2023-03-30T07:38:42.343Z,10.00
2023-03-30T07:41:14.052Z,10.00
2023-03-30T07:43:42.112Z,10.05
2023-03-30T07:46:12.505Z,10.52
2023-03-30T07:48:44.146Z,11.25
2023-03-30T07:51:13.887Z,11.10
2023-03-30T07:54:00.949Z,12.25
2023-03-30T07:56:44.732Z,10.60
2023-03-30T07:59:13.674Z,11.60
2023-03-30T08:01:43.555Z,11.85
2023-03-30T08:04:26.525Z,11.48
2023-03-30T08:06:55.001Z,12.53
2023-03-30T08:09:24.002Z,11.23
2023-03-30T08:11:51.674Z,10.95
2023-03-30T08:14:18.899Z,11.82
2023-03-30T08:16:46.507Z,11.85
2023-03-30T08:19:13.713Z,10.27
2023-03-30T08:21:41.257Z,12.45
2023-03-30T08:24:09.977Z,12.45
2023-03-30T08:26:38.577Z,11.50
2023-03-30T08:29:07.129Z,11.48
2023-03-30T08:31:34.671Z,12.15
2023-03-30T08:34:04.438Z,12.35
2023-03-30T08:36:32.039Z,11.13
2023-03-30T08:38:59.260Z,11.45
2023-03-30T08:41:29.683Z,12.00
2023-03-30T08:44:01.933Z,12.43
2023-03-30T08:46:30.846Z,13.15
2023-03-30T08:49:01.378Z,12.55
2023-03-30T08:51:34.471Z,12.35
2023-03-30T08:54:07.902Z,13.77
2023-03-30T08:56:55.752Z,14.68
2023-03-30T08:59:41.142Z,13.50
2023-03-30T09:02:30.745Z,13.20
2023-03-30T09:05:08.641Z,11.82
2023-03-30T09:08:00.578Z,14.43
2023-03-30T09:10:32.558Z,14.15
2023-03-30T09:13:02.429Z,13.73
2023-03-30T09:16:18.846Z,13.82
2023-03-30T09:18:52.332Z,14.60
2023-03-30T09:21:24.328Z,14.20
2023-03-30T09:23:53.837Z,13.18
2023-03-30T09:26:35.582Z,13.55
2023-03-30T09:29:15.928Z,12.15
2023-03-30T09:31:59.824Z,12.50
2023-03-30T09:34:38.079Z,12.25
2023-03-30T09:37:05.556Z,11.77
2023-03-30T09:39:36.340Z,12.55
2023-03-30T09:42:41.483Z,12.07
2023-03-30T09:45:22.546Z,12.48
2023-03-30T09:47:50.314Z,12.65
2023-03-30T09:50:23.672Z,11.40
2023-03-30T09:53:29.537Z,11.70
2023-03-30T09:56:01.220Z,13.13
2023-03-30T09:58:34.185Z,13.32
2023-03-30T10:01:07.125Z,13.77
2023-03-30T10:03:35.750Z,14.27
2023-03-30T10:06:09.940Z,14.25
2023-03-30T10:08:57.887Z,14.65
2023-03-30T10:11:43.088Z,14.15
2023-03-30T10:14:31.639Z,13.43
2023-03-30T10:17:00.186Z,13.95
2023-03-30T10:19:28.923Z,14.23
2023-03-30T10:21:58.922Z,13.32
2023-03-30T10:24:34.278Z,14.00
2023-03-30T10:27:06.246Z,14.00
2023-03-30T10:29:33.811Z,13.35
2023-03-30T10:32:31.121Z,12.73
2023-03-30T10:35:02.140Z,12.82
2023-03-30T10:37:34.415Z,13.02
2023-03-30T10:40:11.289Z,12.65
2023-03-30T10:42:40.977Z,12.48
2023-03-30T10:45:19.193Z,11.90
2023-03-30T10:47:56.391Z,11.20
2023-03-30T10:51:10.320Z,11.85
2023-03-30T10:53:43.745Z,12.60
2023-03-30T10:56:17.368Z,13.35
2023-03-30T10:59:15.635Z,13.73
2023-03-30T11:01:55.483Z,13.05
2023-03-30T11:04:49.186Z,12.95
2023-03-30T11:07:43.138Z,11.65
2023-03-30T11:10:21.429Z,12.43
2023-03-30T11:13:02.943Z,13.85
2023-03-30T11:15:35.516Z,13.90
2023-03-30T11:18:09.062Z,11.88
2023-03-30T11:20:50.809Z,12.32
2023-03-30T11:23:28.043Z,12.40
2023-03-30T11:26:01.238Z,13.27
2023-03-30T11:28:41.119Z,12.52
2023-03-30T11:31:27.720Z,13.88
2023-03-30T11:34:40.096Z,11.77
2023-03-30T11:37:18.192Z,11.38
2023-03-30T11:40:02.484Z,12.30
2023-03-30T11:42:32.167Z,13.18
2023-03-30T11:45:02.833Z,13.07
2023-03-30T11:47:36.139Z,12.82
2023-03-30T11:50:18.045Z,13.35
2023-03-30T11:52:51.172Z,12.77
2023-03-30T11:55:47.693Z,11.85
2023-03-30T11:58:27.195Z,12.18
2023-03-30T12:00:57.906Z,12.25
2023-03-30T12:03:44.994Z,12.23
2023-03-30T12:06:37.059Z,11.15
2023-03-30T12:09:17.352Z,12.63
2023-03-30T12:11:56.374Z,13.70
2023-03-30T12:14:34.769Z,14.52
2023-03-30T12:17:34.749Z,15.00
2023-03-30T12:20:29.890Z,16.08
2023-03-30T12:23:16.393Z,14.77
2023-03-30T12:26:02.630Z,13.93
2023-03-30T12:29:26.331Z,13.90
2023-03-30T12:31:51.778Z,13.38
2023-03-30T12:34:21.135Z,14.90
2023-03-30T12:36:58.184Z,16.08
2023-03-30T12:39:31.252Z,16.40
2023-03-30T12:42:05.999Z,15.10
2023-03-30T12:44:52.573Z,16.05
2023-03-30T12:47:38.415Z,17.35
2023-03-30T12:50:18.537Z,17.08
2023-03-30T12:52:57.957Z,19.35
2023-03-30T12:55:47.821Z,17.35
2023-03-30T12:58:43.739Z,16.10
2023-03-30T13:01:12.169Z,17.17
2023-03-30T13:03:50.014Z,18.02
2023-03-30T13:06:48.044Z,17.58
2023-03-30T13:09:15.236Z,18.67
2023-03-30T13:12:06.165Z,19.55
2023-03-30T13:14:35.092Z,19.88
2023-03-30T13:17:02.720Z,21.00
2023-03-30T13:19:32.836Z,19.52
2023-03-30T13:22:12.502Z,20.15
2023-03-30T13:24:42.882Z,21.83
2023-03-30T13:27:41.841Z,20.45
2023-03-30T13:30:09.124Z,20.35
2023-03-30T13:32:39.691Z,19.25
2023-03-30T13:35:28.558Z,21.48
2023-03-30T13:38:33.356Z,19.52
2023-03-30T13:41:22.075Z,21.50
2023-03-30T13:44:12.187Z,22.02
2023-03-30T13:47:08.489Z,21.38
2023-03-30T13:49:54.794Z,22.77
2023-03-30T13:52:32.301Z,20.85
2023-03-30T13:55:01.933Z,21.45
2023-03-30T13:57:41.489Z,22.33
2023-03-30T14:00:25.490Z,23.10
2023-03-30T14:02:52.917Z,22.88
2023-03-30T14:05:22.921Z,24.52
2023-03-30T14:07:50.373Z,25.70
2023-03-30T14:10:20.935Z,25.25
2023-03-30T14:12:53.896Z,26.58
2023-03-30T14:15:33.939Z,24.30
2023-03-30T14:18:02.615Z,27.58
2023-03-30T14:20:58.283Z,25.00
2023-03-30T14:23:39.651Z,24.73
2023-03-30T14:26:15.095Z,26.38
2023-03-30T14:28:42.747Z,26.27
2023-03-30T14:31:17.664Z,27.42
2023-03-30T14:33:45.690Z,25.98
2023-03-30T14:36:16.432Z,26.45
2023-03-30T14:38:49.700Z,24.02
2023-03-30T14:41:23.360Z,26.02
2023-03-30T14:44:13.683Z,26.40
2023-03-30T14:46:47.486Z,25.85
2023-03-30T14:49:23.641Z,28.02
2023-03-30T14:51:55.291Z,26.90
2023-03-30T14:54:28.639Z,25.13
2023-03-30T14:57:02.818Z,26.33
2023-03-30T14:59:33.591Z,25.23
2023-03-30T15:02:02.536Z,25.20
2023-03-30T15:04:35.890Z,25.02
2023-03-30T15:07:03.904Z,24.83
2023-03-30T15:09:38.652Z,25.58
2023-03-30T15:12:06.748Z,24.55
2023-03-30T15:14:40.398Z,24.60
2023-03-30T15:17:18.465Z,24.73
2023-03-30T15:19:48.650Z,24.17
2023-03-30T15:22:37.142Z,23.73
2023-03-30T15:25:09.578Z,23.35
2023-03-30T15:27:38.967Z,24.15
2023-03-30T15:30:08.109Z,24.83
2023-03-30T15:32:39.497Z,24.58
2023-03-30T15:35:15.634Z,25.42
2023-03-30T15:38:06.287Z,26.65
2023-03-30T15:40:35.327Z,24.75
2023-03-30T15:43:27.109Z,24.08
2023-03-30T15:46:12.895Z,23.98
2023-03-30T15:48:45.894Z,24.95
2023-03-30T15:51:22.635Z,25.58
2023-03-30T15:53:55.632Z,25.85
2023-03-30T15:56:38.620Z,27.15
2023-03-30T15:59:13.838Z,27.23
2023-03-30T16:01:49.335Z,27.17
2023-03-30T16:04:22.153Z,24.80
2023-03-30T16:06:50.156Z,26.13
2023-03-30T16:09:17.943Z,25.30
2023-03-30T16:11:46.789Z,26.05
2023-03-30T16:14:20.560Z,27.25
2023-03-30T16:16:48.838Z,24.58
2023-03-30T16:19:20.343Z,26.55
2023-03-30T16:21:47.742Z,26.83
2023-03-30T16:24:15.549Z,27.58
2023-03-30T16:26:42.998Z,26.90
2023-03-30T16:29:28.796Z,26.88
2023-03-30T16:31:56.128Z,27.00
2023-03-30T16:34:24.368Z,26.63
2023-03-30T16:36:52.815Z,27.80
2023-03-30T16:39:28.937Z,28.25
2023-03-30T16:41:56.757Z,29.25
2023-03-30T16:44:25.230Z,27.80
2023-03-30T16:46:53.140Z,29.73
2023-03-30T16:49:23.232Z,27.20
2023-03-30T16:51:52.654Z,29.40
2023-03-30T16:54:31.488Z,30.33
2023-03-30T16:57:01.698Z,33.22
2023-03-30T16:59:30.930Z,33.03
2023-03-30T17:01:59.086Z,31.55
2023-03-30T17:04:26.850Z,32.58
2023-03-30T17:06:55.041Z,33.63
2023-03-30T17:09:23.387Z,33.25
2023-03-30T17:11:50.800Z,31.00
2023-03-30T17:14:20.287Z,31.73
2023-03-30T17:16:47.781Z,33.75
2023-03-30T17:19:15.461Z,32.08
2023-03-30T17:21:43.849Z,32.80
2023-03-30T17:24:12.856Z,32.90
2023-03-30T17:26:41.123Z,34.45
2023-03-30T17:29:09.898Z,35.17
2023-03-30T17:31:38.481Z,35.63
2023-03-30T17:34:07.312Z,33.50
2023-03-30T17:36:35.049Z,35.42
2023-03-30T17:39:05.520Z,32.67
2023-03-30T17:41:38.231Z,32.53
2023-03-30T17:44:06.623Z,32.92
2023-03-30T17:46:34.225Z,33.88
2023-03-30T17:49:02.134Z,32.03
2023-03-30T17:51:29.419Z,34.90
2023-03-30T17:53:56.976Z,31.25
2023-03-30T17:56:24.194Z,29.77
2023-03-30T17:58:53.282Z,29.58
2023-03-30T18:01:20.530Z,31.95
2023-03-30T18:03:48.136Z,33.78
2023-03-30T18:06:15.764Z,31.98
2023-03-30T18:08:44.096Z,33.53
2023-03-30T18:11:11.576Z,33.30
2023-03-30T18:13:39.121Z,31.95
2023-03-30T18:16:06.574Z,34.22
2023-03-30T18:18:34.194Z,32.65
2023-03-30T18:21:04.897Z,31.65
2023-03-30T18:23:34.735Z,30.83
2023-03-30T18:26:12.202Z,31.05
2023-03-30T18:28:44.182Z,32.33
2023-03-30T18:33:39.772Z,33.45
2023-03-30T18:36:12.596Z,37.10
2023-03-30T18:38:40.909Z,34.95
2023-03-30T18:41:11.879Z,36.30
2023-03-30T18:43:39.407Z,36.00
2023-03-30T18:46:06.881Z,35.80
2023-03-30T18:48:34.796Z,32.42
2023-03-30T18:51:02.328Z,32.17
2023-03-30T18:53:29.841Z,33.35
2023-03-30T18:56:00.670Z,32.08
2023-03-30T18:58:31.124Z,31.63
2023-03-30T19:00:58.455Z,31.83
2023-03-30T19:03:30.189Z,31.58
2023-03-30T19:05:57.703Z,33.13
2023-03-30T19:08:26.489Z,32.47
2023-03-30T19:10:56.898Z,31.25
2023-03-30T19:13:26.267Z,32.70
2023-03-30T19:15:54.693Z,30.70
2023-03-30T19:18:22.608Z,32.03
2023-03-30T19:20:51.146Z,32.15
2023-03-30T19:23:21.744Z,30.90
2023-03-30T19:25:49.209Z,30.60
2023-03-30T19:28:16.875Z,29.33
2023-03-30T19:30:44.792Z,29.15
2023-03-30T19:33:16.523Z,28.42
2023-03-30T19:38:13.781Z,28.52
2023-03-30T19:40:41.815Z,26.48
2023-03-30T19:43:09.775Z,26.13
2023-03-30T19:45:37.656Z,26.20
2023-03-30T19:48:05.678Z,25.77
2023-03-30T19:50:33.040Z,26.15
2023-03-30T19:53:00.598Z,25.40
2023-03-30T19:55:28.013Z,26.00
2023-03-30T19:57:55.800Z,25.23
2023-03-30T20:00:23.932Z,24.70
2023-03-30T20:02:54.398Z,24.50
2023-03-30T20:05:24.706Z,23.60
2023-03-30T20:07:52.803Z,22.48
2023-03-30T20:10:23.203Z,22.10
2023-03-30T20:12:52.249Z,22.73
2023-03-30T20:15:21.401Z,21.45
2023-03-30T20:17:49.070Z,21.75
2023-03-30T20:20:22.901Z,20.20
2023-03-30T20:22:53.534Z,20.67
2023-03-30T20:25:21.875Z,20.65
2023-03-30T20:27:49.803Z,21.10
2023-03-30T20:30:17.310Z,21.08
2023-03-30T20:32:53.016Z,22.83
2023-03-30T20:35:27.345Z,20.27
2023-03-30T20:37:55.553Z,20.85
2023-03-30T20:40:23.186Z,20.42
2023-03-30T20:42:50.881Z,20.67
2023-03-30T20:45:26.129Z,19.02
2023-03-30T20:47:54.065Z,18.83
2023-03-30T20:50:21.533Z,19.92
2023-03-30T20:52:49.046Z,18.55
2023-03-30T20:55:17.044Z,18.33
2023-03-30T20:57:44.606Z,17.92
2023-03-30T21:00:12.660Z,18.00
2023-03-30T21:02:40.449Z,17.50
2023-03-30T21:05:08.620Z,15.82
2023-03-30T21:07:38.394Z,16.92
2023-03-30T21:10:06.531Z,17.05
2023-03-30T21:12:34.142Z,15.38
2023-03-30T21:15:01.461Z,15.68
2023-03-30T21:17:29.136Z,14.30
2023-03-30T21:19:56.400Z,14.75
2023-03-30T21:22:23.970Z,14.23
2023-03-30T21:24:51.319Z,14.23
2023-03-30T21:27:19.096Z,13.35
2023-03-30T21:29:46.392Z,12.57
2023-03-30T21:32:13.896Z,12.98
2023-03-30T21:34:41.155Z,11.68
2023-03-30T21:37:08.791Z,11.73
2023-03-30T21:39:36.249Z,11.60
2023-03-30T21:42:05.312Z,10.73
2023-03-30T21:44:36.438Z,10.77
2023-03-30T21:47:04.119Z,11.52
2023-03-30T21:49:31.745Z,10.88
2023-03-30T21:51:59.325Z,10.95
2023-03-30T21:54:27.105Z,10.40
2023-03-30T21:56:54.798Z,10.13
2023-03-30T21:59:22.060Z,10.75
2023-03-30T22:01:49.577Z,10.75
2023-03-30T22:04:16.825Z,10.23
2023-03-30T22:06:44.345Z,9.98
2023-03-30T22:09:11.803Z,9.48
2023-03-30T22:11:39.396Z,10.30
2023-03-30T22:14:06.744Z,10.88
2023-03-30T22:16:36.859Z,9.85
2023-03-30T22:19:04.465Z,10.35
2023-03-30T22:21:35.688Z,10.82
2023-03-30T22:24:04.880Z,10.70
2023-03-30T22:26:32.633Z,11.68
2023-03-30T22:29:00.129Z,12.10
2023-03-30T22:31:28.437Z,11.70
2023-03-30T22:33:56.479Z,11.93
2023-03-30T22:36:26.826Z,12.25
2023-03-30T22:38:56.075Z,12.88
2023-03-30T22:41:24.815Z,13.27
2023-03-30T22:43:57.414Z,13.50
2023-03-30T22:46:27.162Z,14.70
2023-03-30T22:48:57.732Z,14.13
2023-03-30T22:51:28.660Z,14.95
2023-03-30T22:54:00.111Z,14.82
2023-03-30T22:56:29.379Z,14.55
2023-03-30T22:58:57.648Z,12.82
2023-03-30T23:01:25.886Z,12.27
2023-03-30T23:03:53.615Z,11.30
2023-03-30T23:06:21.557Z,12.00
2023-03-30T23:08:49.133Z,9.88
2023-03-30T23:11:17.085Z,9.13
2023-03-30T23:13:44.349Z,8.20
2023-03-30T23:16:11.884Z,7.72
2023-03-30T23:18:39.673Z,7.53
2023-03-30T23:21:08.386Z,7.32
2023-03-30T23:23:36.368Z,6.80
2023-03-30T23:26:08.973Z,7.18
2023-03-30T23:28:39.811Z,6.15
2023-03-30T23:31:13.271Z,6.20
2023-03-30T23:33:41.860Z,6.25
2023-03-30T23:36:14.000Z,6.70
2023-03-30T23:38:41.828Z,6.30
2023-03-30T23:41:09.734Z,6.68
2023-03-30T23:43:36.951Z,6.38
2023-03-30T23:46:05.112Z,6.20
2023-03-30T23:48:32.833Z,5.82
2023-03-30T23:51:00.457Z,6.05
2023-03-30T23:53:27.709Z,6.00
2023-03-30T23:55:55.308Z,6.25
2023-03-30T23:58:23.294Z,5.78
